Terminal Aerodrome Forecast
Issued by NWS

Home | Current Version | Previous Version | Text Only | Print | Product List | Glossary On
Versions: 1 2 3 4 5 6 7 8 9 10 11 12 13 14 15 16 17 18
243
FTUS46 KMTR 201740
TAFSTS
TAF
KSTS 201740Z 2018/2118 17006KT P6SM -SHRA BKN021
     FM202100 24012G19KT 5SM SHRA BKN020 OVC030
     FM210300 24012G17KT P6SM VCSH OVC080
     FM210600 23011KT P6SM VCSH BKN050 OVC080
     FM211600 24006KT P6SM VCSH BKN050 OVC080=

USA.gov is the U.S. government's official web portal to all federal, state and local government web resources and services.